sensor_id;sensor_type;location;lat;lon;timestamp;P1;durP1;ratioP1;P2;durP2;ratioP2
18194;SDS011;9223;50.988;3.162;2023-04-24T00:05:47;4.07;;;3.67;;
18194;SDS011;9223;50.988;3.162;2023-04-24T00:11:52;3.83;;;3.33;;
18194;SDS011;9223;50.988;3.162;2023-04-24T00:17:56;4.43;;;3.20;;
18194;SDS011;9223;50.988;3.162;2023-04-24T00:23:59;2.70;;;2.50;;
18194;SDS011;9223;50.988;3.162;2023-04-24T00:30:05;3.08;;;2.78;;
18194;SDS011;9223;50.988;3.162;2023-04-24T00:36:09;4.10;;;2.72;;
18194;SDS011;9223;50.988;3.162;2023-04-24T00:42:12;3.95;;;3.17;;
18194;SDS011;9223;50.988;3.162;2023-04-24T00:48:17;4.15;;;3.17;;
18194;SDS011;9223;50.988;3.162;2023-04-24T00:54:21;4.38;;;3.08;;
18194;SDS011;9223;50.988;3.162;2023-04-24T01:00:24;6.50;;;4.45;;
18194;SDS011;9223;50.988;3.162;2023-04-24T01:06:30;4.93;;;3.63;;
18194;SDS011;9223;50.988;3.162;2023-04-24T01:12:33;7.32;;;6.15;;
18194;SDS011;9223;50.988;3.162;2023-04-24T01:18:37;4.93;;;3.55;;
18194;SDS011;9223;50.988;3.162;2023-04-24T01:24:42;5.65;;;5.05;;
18194;SDS011;9223;50.988;3.162;2023-04-24T01:30:46;4.93;;;4.30;;
18194;SDS011;9223;50.988;3.162;2023-04-24T01:36:49;4.68;;;3.83;;
18194;SDS011;9223;50.988;3.162;2023-04-24T01:42:54;4.35;;;3.50;;
18194;SDS011;9223;50.988;3.162;2023-04-24T01:48:58;3.10;;;2.42;;
18194;SDS011;9223;50.988;3.162;2023-04-24T01:55:03;3.00;;;2.30;;
18194;SDS011;9223;50.988;3.162;2023-04-24T02:01:08;2.38;;;2.17;;
18194;SDS011;9223;50.988;3.162;2023-04-24T02:07:11;3.70;;;2.22;;
18194;SDS011;9223;50.988;3.162;2023-04-24T02:13:15;3.55;;;2.20;;
18194;SDS011;9223;50.988;3.162;2023-04-24T02:19:20;2.60;;;1.85;;
18194;SDS011;9223;50.988;3.162;2023-04-24T02:25:23;2.55;;;1.80;;
18194;SDS011;9223;50.988;3.162;2023-04-24T02:31:27;4.30;;;2.10;;
18194;SDS011;9223;50.988;3.162;2023-04-24T02:37:32;1.92;;;1.75;;
18194;SDS011;9223;50.988;3.162;2023-04-24T02:43:35;2.65;;;1.90;;
18194;SDS011;9223;50.988;3.162;2023-04-24T02:49:39;2.88;;;2.00;;
18194;SDS011;9223;50.988;3.162;2023-04-24T02:55:45;3.67;;;2.50;;
18194;SDS011;9223;50.988;3.162;2023-04-24T03:01:49;3.40;;;2.20;;
18194;SDS011;9223;50.988;3.162;2023-04-24T03:07:53;2.78;;;2.10;;
18194;SDS011;9223;50.988;3.162;2023-04-24T03:13:58;3.00;;;2.45;;
18194;SDS011;9223;50.988;3.162;2023-04-24T03:20:01;3.70;;;2.50;;
18194;SDS011;9223;50.988;3.162;2023-04-24T03:26:06;4.22;;;2.60;;
18194;SDS011;9223;50.988;3.162;2023-04-24T03:32:11;3.13;;;2.60;;
18194;SDS011;9223;50.988;3.162;2023-04-24T03:38:15;3.25;;;2.38;;
18194;SDS011;9223;50.988;3.162;2023-04-24T03:44:19;2.78;;;2.58;;
18194;SDS011;9223;50.988;3.162;2023-04-24T03:50:24;3.03;;;2.60;;
18194;SDS011;9223;50.988;3.162;2023-04-24T03:56:28;4.35;;;2.47;;
18194;SDS011;9223;50.988;3.162;2023-04-24T04:02:31;4.60;;;3.95;;
18194;SDS011;9223;50.988;3.162;2023-04-24T04:08:36;3.35;;;2.50;;
18194;SDS011;9223;50.988;3.162;2023-04-24T04:14:40;6.55;;;3.22;;
18194;SDS011;9223;50.988;3.162;2023-04-24T04:20:43;5.47;;;3.63;;
18194;SDS011;9223;50.988;3.162;2023-04-24T04:26:49;6.03;;;3.65;;
18194;SDS011;9223;50.988;3.162;2023-04-24T04:32:52;4.10;;;2.40;;
18194;SDS011;9223;50.988;3.162;2023-04-24T04:38:56;3.38;;;2.72;;
18194;SDS011;9223;50.988;3.162;2023-04-24T04:45:02;4.00;;;3.60;;
18194;SDS011;9223;50.988;3.162;2023-04-24T04:51:06;4.53;;;3.03;;
18194;SDS011;9223;50.988;3.162;2023-04-24T04:57:10;5.50;;;3.38;;
18194;SDS011;9223;50.988;3.162;2023-04-24T05:03:15;3.75;;;3.10;;
18194;SDS011;9223;50.988;3.162;2023-04-24T05:09:22;5.97;;;3.90;;
18194;SDS011;9223;50.988;3.162;2023-04-24T05:15:28;9.13;;;4.32;;
18194;SDS011;9223;50.988;3.162;2023-04-24T05:21:34;11.73;;;5.38;;
18194;SDS011;9223;50.988;3.162;2023-04-24T05:27:37;11.52;;;5.82;;
18194;SDS011;9223;50.988;3.162;2023-04-24T05:33:41;11.32;;;4.95;;
18194;SDS011;9223;50.988;3.162;2023-04-24T05:39:46;10.23;;;4.32;;
18194;SDS011;9223;50.988;3.162;2023-04-24T05:45:49;8.27;;;3.92;;
18194;SDS011;9223;50.988;3.162;2023-04-24T05:51:54;6.75;;;4.22;;
18194;SDS011;9223;50.988;3.162;2023-04-24T05:57:59;8.55;;;4.82;;
18194;SDS011;9223;50.988;3.162;2023-04-24T06:04:03;11.85;;;5.93;;
18194;SDS011;9223;50.988;3.162;2023-04-24T06:10:07;7.63;;;4.72;;
18194;SDS011;9223;50.988;3.162;2023-04-24T06:16:12;8.38;;;4.60;;
18194;SDS011;9223;50.988;3.162;2023-04-24T06:22:16;8.77;;;4.55;;
18194;SDS011;9223;50.988;3.162;2023-04-24T06:28:19;8.88;;;4.35;;
18194;SDS011;9223;50.988;3.162;2023-04-24T06:34:24;7.68;;;4.40;;
18194;SDS011;9223;50.988;3.162;2023-04-24T06:40:28;9.57;;;4.35;;
18194;SDS011;9223;50.988;3.162;2023-04-24T06:46:31;9.93;;;5.18;;
18194;SDS011;9223;50.988;3.162;2023-04-24T06:52:36;8.50;;;4.57;;
18194;SDS011;9223;50.988;3.162;2023-04-24T06:58:40;8.70;;;4.28;;
18194;SDS011;9223;50.988;3.162;2023-04-24T07:04:43;6.28;;;4.22;;
18194;SDS011;9223;50.988;3.162;2023-04-24T07:10:48;8.18;;;3.85;;
18194;SDS011;9223;50.988;3.162;2023-04-24T07:16:52;7.03;;;3.78;;
18194;SDS011;9223;50.988;3.162;2023-04-24T07:22:55;8.03;;;4.40;;
18194;SDS011;9223;50.988;3.162;2023-04-24T07:29:00;5.50;;;3.83;;
18194;SDS011;9223;50.988;3.162;2023-04-24T07:35:03;6.75;;;3.45;;
18194;SDS011;9223;50.988;3.162;2023-04-24T07:41:07;7.57;;;3.20;;
18194;SDS011;9223;50.988;3.162;2023-04-24T07:47:12;4.53;;;3.15;;
18194;SDS011;9223;50.988;3.162;2023-04-24T07:53:17;7.43;;;3.47;;
18194;SDS011;9223;50.988;3.162;2023-04-24T07:59:20;6.80;;;3.00;;
18194;SDS011;9223;50.988;3.162;2023-04-24T08:05:25;4.60;;;2.70;;
18194;SDS011;9223;50.988;3.162;2023-04-24T08:11:30;4.90;;;2.78;;
18194;SDS011;9223;50.988;3.162;2023-04-24T08:17:34;5.93;;;3.30;;
18194;SDS011;9223;50.988;3.162;2023-04-24T08:23:39;6.75;;;3.20;;
18194;SDS011;9223;50.988;3.162;2023-04-24T08:29:43;3.88;;;2.60;;
18194;SDS011;9223;50.988;3.162;2023-04-24T08:35:46;6.15;;;2.70;;
18194;SDS011;9223;50.988;3.162;2023-04-24T08:41:51;5.85;;;3.60;;
18194;SDS011;9223;50.988;3.162;2023-04-24T08:47:55;3.88;;;3.35;;
18194;SDS011;9223;50.988;3.162;2023-04-24T08:54:00;3.47;;;2.72;;
18194;SDS011;9223;50.988;3.162;2023-04-24T09:00:07;6.18;;;3.63;;
18194;SDS011;9223;50.988;3.162;2023-04-24T09:06:12;6.80;;;4.35;;
18194;SDS011;9223;50.988;3.162;2023-04-24T09:12:16;6.32;;;3.72;;
18194;SDS011;9223;50.988;3.162;2023-04-24T09:18:21;5.57;;;3.33;;
18194;SDS011;9223;50.988;3.162;2023-04-24T09:24:25;3.90;;;3.25;;
18194;SDS011;9223;50.988;3.162;2023-04-24T09:30:28;3.80;;;3.20;;
18194;SDS011;9223;50.988;3.162;2023-04-24T09:36:34;3.80;;;3.38;;
18194;SDS011;9223;50.988;3.162;2023-04-24T09:42:39;6.10;;;3.90;;
18194;SDS011;9223;50.988;3.162;2023-04-24T09:48:43;8.02;;;5.50;;
18194;SDS011;9223;50.988;3.162;2023-04-24T09:54:50;5.32;;;4.35;;
18194;SDS011;9223;50.988;3.162;2023-04-24T10:00:55;6.28;;;3.67;;
18194;SDS011;9223;50.988;3.162;2023-04-24T10:06:59;5.47;;;3.83;;
18194;SDS011;9223;50.988;3.162;2023-04-24T10:13:10;4.53;;;3.50;;
18194;SDS011;9223;50.988;3.162;2023-04-24T10:19:14;7.55;;;5.15;;
18194;SDS011;9223;50.988;3.162;2023-04-24T10:25:18;4.95;;;3.00;;
18194;SDS011;9223;50.988;3.162;2023-04-24T10:31:24;4.25;;;3.03;;
18194;SDS011;9223;50.988;3.162;2023-04-24T10:37:28;6.80;;;3.53;;
18194;SDS011;9223;50.988;3.162;2023-04-24T10:43:31;5.47;;;3.70;;
18194;SDS011;9223;50.988;3.162;2023-04-24T10:49:37;4.88;;;3.42;;
18194;SDS011;9223;50.988;3.162;2023-04-24T10:55:42;4.65;;;3.80;;
18194;SDS011;9223;50.988;3.162;2023-04-24T11:01:49;4.03;;;3.00;;
18194;SDS011;9223;50.988;3.162;2023-04-24T11:08:12;4.13;;;2.35;;
18194;SDS011;9223;50.988;3.162;2023-04-24T11:14:17;3.60;;;2.60;;
18194;SDS011;9223;50.988;3.162;2023-04-24T11:20:23;4.78;;;2.50;;
18194;SDS011;9223;50.988;3.162;2023-04-24T11:26:30;4.00;;;2.58;;
18194;SDS011;9223;50.988;3.162;2023-04-24T11:32:40;2.83;;;2.63;;
18194;SDS011;9223;50.988;3.162;2023-04-24T11:38:44;3.20;;;2.60;;
18194;SDS011;9223;50.988;3.162;2023-04-24T11:44:49;3.75;;;2.55;;
18194;SDS011;9223;50.988;3.162;2023-04-24T11:50:53;2.72;;;2.20;;
18194;SDS011;9223;50.988;3.162;2023-04-24T11:56:56;3.08;;;2.33;;
18194;SDS011;9223;50.988;3.162;2023-04-24T12:03:06;4.85;;;2.25;;
18194;SDS011;9223;50.988;3.162;2023-04-24T12:09:10;4.07;;;2.60;;
18194;SDS011;9223;50.988;3.162;2023-04-24T12:15:19;3.47;;;2.30;;
18194;SDS011;9223;50.988;3.162;2023-04-24T12:21:24;4.57;;;2.17;;
18194;SDS011;9223;50.988;3.162;2023-04-24T12:27:30;3.65;;;2.13;;
18194;SDS011;9223;50.988;3.162;2023-04-24T12:33:35;2.42;;;2.13;;
18194;SDS011;9223;50.988;3.162;2023-04-24T12:39:42;3.17;;;2.10;;
18194;SDS011;9223;50.988;3.162;2023-04-24T12:45:47;2.63;;;2.20;;
18194;SDS011;9223;50.988;3.162;2023-04-24T12:51:51;2.30;;;2.10;;
18194;SDS011;9223;50.988;3.162;2023-04-24T12:57:56;2.55;;;1.95;;
18194;SDS011;9223;50.988;3.162;2023-04-24T13:03:59;1.75;;;1.50;;
18194;SDS011;9223;50.988;3.162;2023-04-24T13:10:03;1.98;;;1.65;;
18194;SDS011;9223;50.988;3.162;2023-04-24T13:16:08;1.73;;;1.50;;
18194;SDS011;9223;50.988;3.162;2023-04-24T13:22:12;2.95;;;2.10;;
18194;SDS011;9223;50.988;3.162;2023-04-24T13:28:16;2.25;;;1.38;;
18194;SDS011;9223;50.988;3.162;2023-04-24T13:34:20;2.60;;;1.77;;
18194;SDS011;9223;50.988;3.162;2023-04-24T13:40:24;1.55;;;1.42;;
18194;SDS011;9223;50.988;3.162;2023-04-24T13:46:30;2.17;;;1.40;;
18194;SDS011;9223;50.988;3.162;2023-04-24T13:52:36;2.08;;;1.55;;
18194;SDS011;9223;50.988;3.162;2023-04-24T13:58:39;3.80;;;1.98;;
18194;SDS011;9223;50.988;3.162;2023-04-24T14:04:42;1.60;;;1.30;;
18194;SDS011;9223;50.988;3.162;2023-04-24T14:10:48;4.43;;;1.40;;
18194;SDS011;9223;50.988;3.162;2023-04-24T14:16:52;1.90;;;1.20;;
18194;SDS011;9223;50.988;3.162;2023-04-24T14:22:55;2.83;;;1.73;;
18194;SDS011;9223;50.988;3.162;2023-04-24T14:29:01;4.70;;;1.30;;
18194;SDS011;9223;50.988;3.162;2023-04-24T14:35:15;2.15;;;1.42;;
18194;SDS011;9223;50.988;3.162;2023-04-24T14:41:18;1.80;;;1.35;;
18194;SDS011;9223;50.988;3.162;2023-04-24T14:47:23;2.20;;;1.23;;
18194;SDS011;9223;50.988;3.162;2023-04-24T14:53:27;2.67;;;1.65;;
18194;SDS011;9223;50.988;3.162;2023-04-24T14:59:31;1.83;;;1.38;;
18194;SDS011;9223;50.988;3.162;2023-04-24T15:05:35;3.97;;;1.80;;
18194;SDS011;9223;50.988;3.162;2023-04-24T15:11:40;2.92;;;1.70;;
18194;SDS011;9223;50.988;3.162;2023-04-24T15:17:43;5.40;;;1.80;;
18194;SDS011;9223;50.988;3.162;2023-04-24T15:23:48;4.20;;;2.30;;
18194;SDS011;9223;50.988;3.162;2023-04-24T15:29:51;2.47;;;1.58;;
18194;SDS011;9223;50.988;3.162;2023-04-24T15:35:55;2.03;;;1.85;;
18194;SDS011;9223;50.988;3.162;2023-04-24T15:42:00;3.00;;;1.52;;
18194;SDS011;9223;50.988;3.162;2023-04-24T15:48:04;3.92;;;2.40;;
18194;SDS011;9223;50.988;3.162;2023-04-24T15:54:07;2.20;;;2.00;;
18194;SDS011;9223;50.988;3.162;2023-04-24T16:00:13;2.00;;;1.70;;
18194;SDS011;9223;50.988;3.162;2023-04-24T16:06:16;2.00;;;1.73;;
18194;SDS011;9223;50.988;3.162;2023-04-24T16:12:20;3.83;;;2.30;;
18194;SDS011;9223;50.988;3.162;2023-04-24T16:18:29;2.25;;;1.98;;
18194;SDS011;9223;50.988;3.162;2023-04-24T16:24:32;5.13;;;1.90;;
18194;SDS011;9223;50.988;3.162;2023-04-24T16:30:36;3.40;;;1.83;;
18194;SDS011;9223;50.988;3.162;2023-04-24T16:36:42;5.18;;;2.10;;
18194;SDS011;9223;50.988;3.162;2023-04-24T16:42:45;3.13;;;2.03;;
18194;SDS011;9223;50.988;3.162;2023-04-24T16:48:49;2.70;;;1.80;;
18194;SDS011;9223;50.988;3.162;2023-04-24T16:54:54;2.13;;;1.65;;
18194;SDS011;9223;50.988;3.162;2023-04-24T17:00:58;3.88;;;1.98;;
18194;SDS011;9223;50.988;3.162;2023-04-24T17:07:02;3.50;;;2.25;;
18194;SDS011;9223;50.988;3.162;2023-04-24T17:13:06;3.70;;;1.70;;
18194;SDS011;9223;50.988;3.162;2023-04-24T17:19:10;2.55;;;1.95;;
18194;SDS011;9223;50.988;3.162;2023-04-24T17:25:14;4.88;;;2.00;;
18194;SDS011;9223;50.988;3.162;2023-04-24T17:31:18;6.75;;;2.22;;
18194;SDS011;9223;50.988;3.162;2023-04-24T17:37:23;4.97;;;1.98;;
18194;SDS011;9223;50.988;3.162;2023-04-24T17:43:27;3.38;;;1.95;;
18194;SDS011;9223;50.988;3.162;2023-04-24T17:49:32;3.20;;;2.08;;
18194;SDS011;9223;50.988;3.162;2023-04-24T17:55:38;2.80;;;2.33;;
18194;SDS011;9223;50.988;3.162;2023-04-24T18:01:43;4.95;;;3.20;;
18194;SDS011;9223;50.988;3.162;2023-04-24T18:07:48;2.83;;;2.00;;
18194;SDS011;9223;50.988;3.162;2023-04-24T18:13:52;5.03;;;2.70;;
18194;SDS011;9223;50.988;3.162;2023-04-24T18:19:55;5.13;;;3.00;;
18194;SDS011;9223;50.988;3.162;2023-04-24T18:26:02;3.70;;;2.40;;
18194;SDS011;9223;50.988;3.162;2023-04-24T18:32:05;3.78;;;2.70;;
18194;SDS011;9223;50.988;3.162;2023-04-24T18:38:09;4.28;;;2.80;;
18194;SDS011;9223;50.988;3.162;2023-04-24T18:44:14;4.85;;;3.30;;
18194;SDS011;9223;50.988;3.162;2023-04-24T18:50:17;4.60;;;2.78;;
18194;SDS011;9223;50.988;3.162;2023-04-24T18:56:22;5.20;;;3.65;;
18194;SDS011;9223;50.988;3.162;2023-04-24T19:02:27;6.15;;;3.65;;
18194;SDS011;9223;50.988;3.162;2023-04-24T19:08:30;4.75;;;3.22;;
18194;SDS011;9223;50.988;3.162;2023-04-24T19:14:34;5.72;;;3.00;;
18194;SDS011;9223;50.988;3.162;2023-04-24T19:20:39;4.32;;;3.60;;
18194;SDS011;9223;50.988;3.162;2023-04-24T19:26:44;6.13;;;3.40;;
18194;SDS011;9223;50.988;3.162;2023-04-24T19:32:47;5.38;;;3.25;;
18194;SDS011;9223;50.988;3.162;2023-04-24T19:38:52;4.95;;;3.22;;
18194;SDS011;9223;50.988;3.162;2023-04-24T19:44:56;6.07;;;3.83;;
18194;SDS011;9223;50.988;3.162;2023-04-24T19:50:59;5.47;;;3.63;;
18194;SDS011;9223;50.988;3.162;2023-04-24T19:57:04;5.82;;;3.53;;
18194;SDS011;9223;50.988;3.162;2023-04-24T20:03:08;6.28;;;3.53;;
18194;SDS011;9223;50.988;3.162;2023-04-24T20:09:31;6.10;;;3.30;;
18194;SDS011;9223;50.988;3.162;2023-04-24T20:15:36;5.30;;;3.80;;
18194;SDS011;9223;50.988;3.162;2023-04-24T20:21:40;9.05;;;4.18;;
18194;SDS011;9223;50.988;3.162;2023-04-24T20:27:43;6.82;;;3.90;;
18194;SDS011;9223;50.988;3.162;2023-04-24T20:33:48;7.05;;;3.92;;
18194;SDS011;9223;50.988;3.162;2023-04-24T20:39:52;6.60;;;4.30;;
18194;SDS011;9223;50.988;3.162;2023-04-24T20:45:56;8.07;;;4.05;;
18194;SDS011;9223;50.988;3.162;2023-04-24T20:52:01;5.88;;;3.72;;
18194;SDS011;9223;50.988;3.162;2023-04-24T20:58:04;9.15;;;4.32;;
18194;SDS011;9223;50.988;3.162;2023-04-24T21:04:08;6.20;;;3.95;;
18194;SDS011;9223;50.988;3.162;2023-04-24T21:10:13;9.43;;;4.18;;
18194;SDS011;9223;50.988;3.162;2023-04-24T21:16:17;8.00;;;3.95;;
18194;SDS011;9223;50.988;3.162;2023-04-24T21:22:21;7.28;;;3.60;;
18194;SDS011;9223;50.988;3.162;2023-04-24T21:28:26;7.22;;;4.15;;
18194;SDS011;9223;50.988;3.162;2023-04-24T21:34:30;8.63;;;3.83;;
18194;SDS011;9223;50.988;3.162;2023-04-24T21:40:35;7.00;;;3.92;;
18194;SDS011;9223;50.988;3.162;2023-04-24T21:46:40;6.55;;;3.63;;
18194;SDS011;9223;50.988;3.162;2023-04-24T21:52:44;9.63;;;4.45;;
18194;SDS011;9223;50.988;3.162;2023-04-24T21:58:47;7.20;;;4.50;;
18194;SDS011;9223;50.988;3.162;2023-04-24T22:04:52;7.40;;;4.45;;
18194;SDS011;9223;50.988;3.162;2023-04-24T22:10:57;8.25;;;4.40;;
18194;SDS011;9223;50.988;3.162;2023-04-24T22:17:01;7.00;;;4.38;;
18194;SDS011;9223;50.988;3.162;2023-04-24T22:23:06;6.47;;;4.38;;
18194;SDS011;9223;50.988;3.162;2023-04-24T22:29:10;10.65;;;4.95;;
18194;SDS011;9223;50.988;3.162;2023-04-24T22:35:13;9.52;;;4.95;;
18194;SDS011;9223;50.988;3.162;2023-04-24T22:41:18;6.40;;;4.70;;
18194;SDS011;9223;50.988;3.162;2023-04-24T22:47:21;10.30;;;4.53;;
18194;SDS011;9223;50.988;3.162;2023-04-24T22:53:25;9.65;;;5.10;;
18194;SDS011;9223;50.988;3.162;2023-04-24T22:59:30;8.95;;;4.38;;
18194;SDS011;9223;50.988;3.162;2023-04-24T23:05:34;8.02;;;4.60;;
18194;SDS011;9223;50.988;3.162;2023-04-24T23:11:37;7.78;;;4.72;;
18194;SDS011;9223;50.988;3.162;2023-04-24T23:17:42;9.65;;;4.90;;
18194;SDS011;9223;50.988;3.162;2023-04-24T23:23:45;9.02;;;5.38;;
18194;SDS011;9223;50.988;3.162;2023-04-24T23:29:51;7.93;;;5.10;;
18194;SDS011;9223;50.988;3.162;2023-04-24T23:35:55;8.10;;;4.80;;
18194;SDS011;9223;50.988;3.162;2023-04-24T23:42:00;12.55;;;4.72;;
18194;SDS011;9223;50.988;3.162;2023-04-24T23:48:04;9.90;;;4.03;;
18194;SDS011;9223;50.988;3.162;2023-04-24T23:54:09;9.38;;;4.13;;
